sensor_id;sensor_type;location;lat;lon;timestamp;P1;durP1;ratioP1;P2;durP2;ratioP2
17382;SDS011;8809;51.892;8.384;2022-11-30T00:01:16;15.48;;;9.25;;
17382;SDS011;8809;51.892;8.384;2022-11-30T00:03:46;15.00;;;9.38;;
17382;SDS011;8809;51.892;8.384;2022-11-30T00:06:14;20.88;;;11.02;;
17382;SDS011;8809;51.892;8.384;2022-11-30T00:08:47;17.73;;;9.55;;
17382;SDS011;8809;51.892;8.384;2022-11-30T00:11:14;20.48;;;12.15;;
17382;SDS011;8809;51.892;8.384;2022-11-30T00:13:45;18.23;;;10.60;;
17382;SDS011;8809;51.892;8.384;2022-11-30T00:16:12;29.05;;;15.25;;
17382;SDS011;8809;51.892;8.384;2022-11-30T00:18:39;21.27;;;12.00;;
17382;SDS011;8809;51.892;8.384;2022-11-30T00:21:07;17.85;;;10.80;;
17382;SDS011;8809;51.892;8.384;2022-11-30T00:23:38;21.83;;;12.98;;
17382;SDS011;8809;51.892;8.384;2022-11-30T00:26:06;21.73;;;11.80;;
17382;SDS011;8809;51.892;8.384;2022-11-30T00:28:35;19.95;;;11.77;;
17382;SDS011;8809;51.892;8.384;2022-11-30T00:31:04;19.85;;;11.18;;
17382;SDS011;8809;51.892;8.384;2022-11-30T00:33:33;22.15;;;12.90;;
17382;SDS011;8809;51.892;8.384;2022-11-30T00:36:01;20.80;;;11.80;;
17382;SDS011;8809;51.892;8.384;2022-11-30T00:38:31;21.88;;;12.10;;
17382;SDS011;8809;51.892;8.384;2022-11-30T00:40:58;19.70;;;11.23;;
17382;SDS011;8809;51.892;8.384;2022-11-30T00:43:25;20.25;;;10.68;;
17382;SDS011;8809;51.892;8.384;2022-11-30T00:45:52;16.88;;;10.40;;
17382;SDS011;8809;51.892;8.384;2022-11-30T00:48:19;17.45;;;10.60;;
17382;SDS011;8809;51.892;8.384;2022-11-30T00:50:46;23.27;;;11.95;;
17382;SDS011;8809;51.892;8.384;2022-11-30T00:53:13;18.45;;;10.75;;
17382;SDS011;8809;51.892;8.384;2022-11-30T00:55:42;19.25;;;10.20;;
17382;SDS011;8809;51.892;8.384;2022-11-30T00:58:10;17.90;;;10.77;;
17382;SDS011;8809;51.892;8.384;2022-11-30T01:00:37;19.25;;;10.93;;
17382;SDS011;8809;51.892;8.384;2022-11-30T01:03:04;20.98;;;11.38;;
17382;SDS011;8809;51.892;8.384;2022-11-30T01:05:31;17.25;;;10.15;;
17382;SDS011;8809;51.892;8.384;2022-11-30T01:07:59;19.33;;;10.75;;
17382;SDS011;8809;51.892;8.384;2022-11-30T01:10:26;19.25;;;10.35;;
17382;SDS011;8809;51.892;8.384;2022-11-30T01:12:54;17.10;;;9.48;;
17382;SDS011;8809;51.892;8.384;2022-11-30T01:15:21;19.15;;;10.80;;
17382;SDS011;8809;51.892;8.384;2022-11-30T01:17:48;18.77;;;10.55;;
17382;SDS011;8809;51.892;8.384;2022-11-30T01:20:15;22.13;;;11.77;;
17382;SDS011;8809;51.892;8.384;2022-11-30T01:22:42;21.10;;;11.30;;
17382;SDS011;8809;51.892;8.384;2022-11-30T01:25:09;20.30;;;11.82;;
17382;SDS011;8809;51.892;8.384;2022-11-30T01:27:36;18.25;;;10.13;;
17382;SDS011;8809;51.892;8.384;2022-11-30T01:30:08;16.05;;;9.27;;
17382;SDS011;8809;51.892;8.384;2022-11-30T01:32:37;17.27;;;9.70;;
17382;SDS011;8809;51.892;8.384;2022-11-30T01:35:04;18.08;;;10.55;;
17382;SDS011;8809;51.892;8.384;2022-11-30T01:37:31;17.45;;;9.70;;
17382;SDS011;8809;51.892;8.384;2022-11-30T01:39:58;21.50;;;11.48;;
17382;SDS011;8809;51.892;8.384;2022-11-30T01:42:25;20.83;;;11.55;;
17382;SDS011;8809;51.892;8.384;2022-11-30T01:44:53;20.15;;;10.40;;
17382;SDS011;8809;51.892;8.384;2022-11-30T01:47:23;17.85;;;10.35;;
17382;SDS011;8809;51.892;8.384;2022-11-30T01:49:55;18.58;;;10.23;;
17382;SDS011;8809;51.892;8.384;2022-11-30T01:52:31;20.33;;;10.77;;
17382;SDS011;8809;51.892;8.384;2022-11-30T01:55:02;18.58;;;10.15;;
17382;SDS011;8809;51.892;8.384;2022-11-30T01:57:37;17.30;;;9.70;;
17382;SDS011;8809;51.892;8.384;2022-11-30T02:00:08;19.98;;;10.80;;
17382;SDS011;8809;51.892;8.384;2022-11-30T02:02:42;23.10;;;12.77;;
17382;SDS011;8809;51.892;8.384;2022-11-30T02:05:14;20.42;;;11.48;;
17382;SDS011;8809;51.892;8.384;2022-11-30T02:07:42;24.42;;;12.82;;
17382;SDS011;8809;51.892;8.384;2022-11-30T02:10:12;23.50;;;12.07;;
17382;SDS011;8809;51.892;8.384;2022-11-30T02:12:43;24.58;;;11.63;;
17382;SDS011;8809;51.892;8.384;2022-11-30T02:15:23;26.08;;;13.60;;
17382;SDS011;8809;51.892;8.384;2022-11-30T02:18:00;22.30;;;12.15;;
17382;SDS011;8809;51.892;8.384;2022-11-30T02:20:45;24.20;;;12.32;;
17382;SDS011;8809;51.892;8.384;2022-11-30T02:26:53;22.80;;;12.07;;
17382;SDS011;8809;51.892;8.384;2022-11-30T02:29:29;29.55;;;13.95;;
17382;SDS011;8809;51.892;8.384;2022-11-30T02:32:01;25.20;;;13.20;;
17382;SDS011;8809;51.892;8.384;2022-11-30T02:34:34;24.60;;;13.23;;
17382;SDS011;8809;51.892;8.384;2022-11-30T02:37:02;26.10;;;13.52;;
17382;SDS011;8809;51.892;8.384;2022-11-30T02:39:32;27.52;;;14.35;;
17382;SDS011;8809;51.892;8.384;2022-11-30T02:41:59;26.10;;;13.82;;
17382;SDS011;8809;51.892;8.384;2022-11-30T02:44:25;25.70;;;12.93;;
17382;SDS011;8809;51.892;8.384;2022-11-30T02:46:58;26.88;;;14.27;;
17382;SDS011;8809;51.892;8.384;2022-11-30T02:49:34;27.45;;;13.88;;
17382;SDS011;8809;51.892;8.384;2022-11-30T02:52:09;25.67;;;12.73;;
17382;SDS011;8809;51.892;8.384;2022-11-30T02:54:36;26.40;;;12.73;;
17382;SDS011;8809;51.892;8.384;2022-11-30T02:57:03;25.10;;;12.05;;
17382;SDS011;8809;51.892;8.384;2022-11-30T02:59:30;23.05;;;12.50;;
17382;SDS011;8809;51.892;8.384;2022-11-30T03:01:58;23.05;;;11.75;;
17382;SDS011;8809;51.892;8.384;2022-11-30T03:04:25;26.05;;;11.75;;
17382;SDS011;8809;51.892;8.384;2022-11-30T03:06:52;27.67;;;13.50;;
17382;SDS011;8809;51.892;8.384;2022-11-30T03:09:19;28.65;;;12.93;;
17382;SDS011;8809;51.892;8.384;2022-11-30T03:11:46;27.10;;;12.10;;
17382;SDS011;8809;51.892;8.384;2022-11-30T03:14:12;25.25;;;11.02;;
17382;SDS011;8809;51.892;8.384;2022-11-30T03:16:39;25.42;;;11.50;;
17382;SDS011;8809;51.892;8.384;2022-11-30T03:19:08;22.85;;;11.38;;
17382;SDS011;8809;51.892;8.384;2022-11-30T03:21:34;25.25;;;11.90;;
17382;SDS011;8809;51.892;8.384;2022-11-30T03:24:02;28.00;;;12.43;;
17382;SDS011;8809;51.892;8.384;2022-11-30T03:26:29;24.48;;;10.60;;
17382;SDS011;8809;51.892;8.384;2022-11-30T03:28:56;22.30;;;10.70;;
17382;SDS011;8809;51.892;8.384;2022-11-30T03:31:22;21.15;;;10.35;;
17382;SDS011;8809;51.892;8.384;2022-11-30T03:33:49;22.50;;;10.63;;
17382;SDS011;8809;51.892;8.384;2022-11-30T03:36:17;20.13;;;10.32;;
17382;SDS011;8809;51.892;8.384;2022-11-30T03:38:44;22.98;;;11.38;;
17382;SDS011;8809;51.892;8.384;2022-11-30T03:41:13;21.52;;;10.73;;
17382;SDS011;8809;51.892;8.384;2022-11-30T03:43:42;25.48;;;11.20;;
17382;SDS011;8809;51.892;8.384;2022-11-30T03:46:09;20.60;;;10.95;;
17382;SDS011;8809;51.892;8.384;2022-11-30T03:48:36;25.90;;;11.50;;
17382;SDS011;8809;51.892;8.384;2022-11-30T03:51:05;25.10;;;10.90;;
17382;SDS011;8809;51.892;8.384;2022-11-30T03:53:34;24.23;;;11.75;;
17382;SDS011;8809;51.892;8.384;2022-11-30T03:56:02;21.48;;;10.88;;
17382;SDS011;8809;51.892;8.384;2022-11-30T03:58:31;27.75;;;12.73;;
17382;SDS011;8809;51.892;8.384;2022-11-30T04:00:59;22.33;;;10.63;;
17382;SDS011;8809;51.892;8.384;2022-11-30T04:03:27;25.88;;;11.70;;
17382;SDS011;8809;51.892;8.384;2022-11-30T04:05:54;25.48;;;12.02;;
17382;SDS011;8809;51.892;8.384;2022-11-30T04:08:21;24.50;;;12.10;;
17382;SDS011;8809;51.892;8.384;2022-11-30T04:10:50;24.27;;;12.05;;
17382;SDS011;8809;51.892;8.384;2022-11-30T04:13:18;25.50;;;11.27;;
17382;SDS011;8809;51.892;8.384;2022-11-30T04:15:46;24.15;;;11.55;;
17382;SDS011;8809;51.892;8.384;2022-11-30T04:18:14;31.05;;;13.88;;
17382;SDS011;8809;51.892;8.384;2022-11-30T04:20:41;27.10;;;12.55;;
17382;SDS011;8809;51.892;8.384;2022-11-30T04:23:09;32.28;;;14.13;;
17382;SDS011;8809;51.892;8.384;2022-11-30T04:25:36;26.88;;;12.10;;
17382;SDS011;8809;51.892;8.384;2022-11-30T04:28:04;26.55;;;12.52;;
17382;SDS011;8809;51.892;8.384;2022-11-30T04:30:31;26.77;;;11.90;;
17382;SDS011;8809;51.892;8.384;2022-11-30T04:32:59;25.00;;;11.35;;
17382;SDS011;8809;51.892;8.384;2022-11-30T04:35:26;26.77;;;11.18;;
17382;SDS011;8809;51.892;8.384;2022-11-30T04:37:53;22.38;;;11.23;;
17382;SDS011;8809;51.892;8.384;2022-11-30T04:40:20;21.42;;;9.38;;
17382;SDS011;8809;51.892;8.384;2022-11-30T04:42:47;30.48;;;11.88;;
17382;SDS011;8809;51.892;8.384;2022-11-30T04:45:15;20.60;;;10.23;;
17382;SDS011;8809;51.892;8.384;2022-11-30T04:47:42;24.02;;;10.63;;
17382;SDS011;8809;51.892;8.384;2022-11-30T04:50:12;25.33;;;11.77;;
17382;SDS011;8809;51.892;8.384;2022-11-30T04:52:39;23.77;;;10.40;;
17382;SDS011;8809;51.892;8.384;2022-11-30T04:55:06;20.48;;;10.02;;
17382;SDS011;8809;51.892;8.384;2022-11-30T04:57:33;24.38;;;10.07;;
17382;SDS011;8809;51.892;8.384;2022-11-30T05:00:00;27.73;;;12.45;;
17382;SDS011;8809;51.892;8.384;2022-11-30T05:02:30;22.65;;;10.15;;
17382;SDS011;8809;51.892;8.384;2022-11-30T05:04:57;21.15;;;10.38;;
17382;SDS011;8809;51.892;8.384;2022-11-30T05:07:24;22.25;;;10.05;;
17382;SDS011;8809;51.892;8.384;2022-11-30T05:09:51;21.02;;;10.30;;
17382;SDS011;8809;51.892;8.384;2022-11-30T05:12:18;20.48;;;9.35;;
17382;SDS011;8809;51.892;8.384;2022-11-30T05:14:45;24.52;;;10.30;;
17382;SDS011;8809;51.892;8.384;2022-11-30T05:17:12;26.23;;;11.50;;
17382;SDS011;8809;51.892;8.384;2022-11-30T05:19:40;22.33;;;10.13;;
17382;SDS011;8809;51.892;8.384;2022-11-30T05:22:07;20.08;;;9.50;;
17382;SDS011;8809;51.892;8.384;2022-11-30T05:24:34;23.33;;;10.40;;
17382;SDS011;8809;51.892;8.384;2022-11-30T05:27:00;21.90;;;9.98;;
17382;SDS011;8809;51.892;8.384;2022-11-30T05:29:27;24.00;;;10.65;;
17382;SDS011;8809;51.892;8.384;2022-11-30T05:31:54;22.95;;;10.73;;
17382;SDS011;8809;51.892;8.384;2022-11-30T05:34:21;22.42;;;9.95;;
17382;SDS011;8809;51.892;8.384;2022-11-30T05:36:49;28.05;;;11.68;;
17382;SDS011;8809;51.892;8.384;2022-11-30T05:39:16;22.67;;;10.45;;
17382;SDS011;8809;51.892;8.384;2022-11-30T05:41:43;21.02;;;9.35;;
17382;SDS011;8809;51.892;8.384;2022-11-30T05:44:09;24.35;;;11.15;;
17382;SDS011;8809;51.892;8.384;2022-11-30T05:46:37;21.75;;;10.32;;
17382;SDS011;8809;51.892;8.384;2022-11-30T05:49:04;26.70;;;12.15;;
17382;SDS011;8809;51.892;8.384;2022-11-30T05:51:31;23.20;;;10.02;;
17382;SDS011;8809;51.892;8.384;2022-11-30T05:53:59;23.10;;;10.68;;
17382;SDS011;8809;51.892;8.384;2022-11-30T05:56:26;24.58;;;10.88;;
17382;SDS011;8809;51.892;8.384;2022-11-30T05:58:52;25.58;;;11.43;;
17382;SDS011;8809;51.892;8.384;2022-11-30T06:01:21;22.60;;;10.45;;
17382;SDS011;8809;51.892;8.384;2022-11-30T06:03:49;22.98;;;11.38;;
17382;SDS011;8809;51.892;8.384;2022-11-30T06:06:17;25.98;;;11.35;;
17382;SDS011;8809;51.892;8.384;2022-11-30T06:08:44;25.38;;;11.65;;
17382;SDS011;8809;51.892;8.384;2022-11-30T06:11:14;24.45;;;11.25;;
17382;SDS011;8809;51.892;8.384;2022-11-30T06:13:41;33.67;;;14.52;;
17382;SDS011;8809;51.892;8.384;2022-11-30T06:16:08;27.15;;;11.20;;
17382;SDS011;8809;51.892;8.384;2022-11-30T06:18:38;25.38;;;11.88;;
17382;SDS011;8809;51.892;8.384;2022-11-30T06:21:06;20.13;;;9.20;;
17382;SDS011;8809;51.892;8.384;2022-11-30T06:23:34;19.88;;;9.65;;
17382;SDS011;8809;51.892;8.384;2022-11-30T06:26:02;28.67;;;13.02;;
17382;SDS011;8809;51.892;8.384;2022-11-30T06:28:31;22.30;;;11.05;;
17382;SDS011;8809;51.892;8.384;2022-11-30T06:30:59;19.75;;;10.25;;
17382;SDS011;8809;51.892;8.384;2022-11-30T06:33:26;25.65;;;12.88;;
17382;SDS011;8809;51.892;8.384;2022-11-30T06:35:53;27.08;;;13.00;;
17382;SDS011;8809;51.892;8.384;2022-11-30T06:38:21;27.70;;;14.05;;
17382;SDS011;8809;51.892;8.384;2022-11-30T06:40:48;26.08;;;13.05;;
17382;SDS011;8809;51.892;8.384;2022-11-30T06:43:15;24.13;;;11.95;;
17382;SDS011;8809;51.892;8.384;2022-11-30T06:45:44;23.48;;;11.52;;
17382;SDS011;8809;51.892;8.384;2022-11-30T06:48:12;28.85;;;12.63;;
17382;SDS011;8809;51.892;8.384;2022-11-30T06:50:39;22.25;;;11.85;;
17382;SDS011;8809;51.892;8.384;2022-11-30T06:53:06;25.85;;;12.77;;
17382;SDS011;8809;51.892;8.384;2022-11-30T06:55:34;27.30;;;13.52;;
17382;SDS011;8809;51.892;8.384;2022-11-30T06:58:05;25.10;;;12.30;;
17382;SDS011;8809;51.892;8.384;2022-11-30T07:00:33;19.80;;;9.65;;
17382;SDS011;8809;51.892;8.384;2022-11-30T07:03:02;20.45;;;9.55;;
17382;SDS011;8809;51.892;8.384;2022-11-30T07:05:31;16.88;;;8.25;;
17382;SDS011;8809;51.892;8.384;2022-11-30T07:08:00;17.08;;;8.60;;
17382;SDS011;8809;51.892;8.384;2022-11-30T07:10:27;14.32;;;7.65;;
17382;SDS011;8809;51.892;8.384;2022-11-30T07:12:56;14.52;;;7.85;;
17382;SDS011;8809;51.892;8.384;2022-11-30T07:15:22;14.43;;;7.53;;
17382;SDS011;8809;51.892;8.384;2022-11-30T07:17:50;12.40;;;6.78;;
17382;SDS011;8809;51.892;8.384;2022-11-30T07:20:18;15.32;;;8.10;;
17382;SDS011;8809;51.892;8.384;2022-11-30T07:22:45;13.27;;;6.93;;
17382;SDS011;8809;51.892;8.384;2022-11-30T07:25:12;14.02;;;7.75;;
17382;SDS011;8809;51.892;8.384;2022-11-30T07:27:56;17.30;;;8.38;;
17382;SDS011;8809;51.892;8.384;2022-11-30T07:30:23;15.02;;;8.07;;
17382;SDS011;8809;51.892;8.384;2022-11-30T07:32:50;14.25;;;7.68;;
17382;SDS011;8809;51.892;8.384;2022-11-30T07:35:18;12.65;;;7.00;;
17382;SDS011;8809;51.892;8.384;2022-11-30T07:37:45;14.90;;;8.02;;
17382;SDS011;8809;51.892;8.384;2022-11-30T07:40:12;13.70;;;7.55;;
17382;SDS011;8809;51.892;8.384;2022-11-30T07:42:39;11.95;;;6.75;;
17382;SDS011;8809;51.892;8.384;2022-11-30T07:45:06;11.30;;;6.57;;
17382;SDS011;8809;51.892;8.384;2022-11-30T07:47:34;12.40;;;7.10;;
17382;SDS011;8809;51.892;8.384;2022-11-30T07:50:01;11.68;;;6.68;;
17382;SDS011;8809;51.892;8.384;2022-11-30T07:52:33;11.80;;;6.95;;
17382;SDS011;8809;51.892;8.384;2022-11-30T07:55:00;10.60;;;6.25;;
17382;SDS011;8809;51.892;8.384;2022-11-30T07:57:27;9.10;;;5.63;;
17382;SDS011;8809;51.892;8.384;2022-11-30T07:59:54;9.57;;;5.68;;
17382;SDS011;8809;51.892;8.384;2022-11-30T08:02:21;9.23;;;5.28;;
17382;SDS011;8809;51.892;8.384;2022-11-30T08:04:48;8.55;;;5.68;;
17382;SDS011;8809;51.892;8.384;2022-11-30T08:07:15;8.13;;;5.65;;
17382;SDS011;8809;51.892;8.384;2022-11-30T08:09:43;7.93;;;5.10;;
17382;SDS011;8809;51.892;8.384;2022-11-30T08:12:10;8.18;;;5.53;;
17382;SDS011;8809;51.892;8.384;2022-11-30T08:14:37;7.80;;;5.53;;
17382;SDS011;8809;51.892;8.384;2022-11-30T08:17:04;8.38;;;4.82;;
17382;SDS011;8809;51.892;8.384;2022-11-30T08:19:30;7.97;;;5.07;;
17382;SDS011;8809;51.892;8.384;2022-11-30T08:21:57;7.93;;;5.10;;
17382;SDS011;8809;51.892;8.384;2022-11-30T08:24:24;7.05;;;4.82;;
17382;SDS011;8809;51.892;8.384;2022-11-30T08:26:53;9.13;;;5.10;;
17382;SDS011;8809;51.892;8.384;2022-11-30T08:29:20;6.78;;;4.70;;
17382;SDS011;8809;51.892;8.384;2022-11-30T08:31:47;5.97;;;4.50;;
17382;SDS011;8809;51.892;8.384;2022-11-30T08:34:14;8.75;;;4.40;;
17382;SDS011;8809;51.892;8.384;2022-11-30T08:36:41;6.32;;;4.00;;
17382;SDS011;8809;51.892;8.384;2022-11-30T08:39:10;4.80;;;3.55;;
17382;SDS011;8809;51.892;8.384;2022-11-30T08:41:38;5.28;;;3.85;;
17382;SDS011;8809;51.892;8.384;2022-11-30T08:44:06;4.18;;;3.78;;
17382;SDS011;8809;51.892;8.384;2022-11-30T08:46:33;4.97;;;3.83;;
17382;SDS011;8809;51.892;8.384;2022-11-30T08:49:02;5.18;;;3.72;;
17382;SDS011;8809;51.892;8.384;2022-11-30T08:51:29;6.40;;;4.25;;
17382;SDS011;8809;51.892;8.384;2022-11-30T08:53:56;4.22;;;3.47;;
17382;SDS011;8809;51.892;8.384;2022-11-30T08:56:23;5.00;;;4.07;;
17382;SDS011;8809;51.892;8.384;2022-11-30T08:58:50;5.95;;;4.18;;
17382;SDS011;8809;51.892;8.384;2022-11-30T09:01:20;6.32;;;3.95;;
17382;SDS011;8809;51.892;8.384;2022-11-30T09:03:48;4.43;;;3.60;;
17382;SDS011;8809;51.892;8.384;2022-11-30T09:06:17;5.45;;;3.53;;
17382;SDS011;8809;51.892;8.384;2022-11-30T09:08:47;5.75;;;3.60;;
17382;SDS011;8809;51.892;8.384;2022-11-30T09:11:15;4.65;;;3.28;;
17382;SDS011;8809;51.892;8.384;2022-11-30T09:13:46;4.13;;;2.92;;
17382;SDS011;8809;51.892;8.384;2022-11-30T09:16:14;3.60;;;3.22;;
17382;SDS011;8809;51.892;8.384;2022-11-30T09:18:44;4.47;;;3.50;;
17382;SDS011;8809;51.892;8.384;2022-11-30T09:21:11;4.10;;;3.38;;
17382;SDS011;8809;51.892;8.384;2022-11-30T09:23:39;4.18;;;3.55;;
17382;SDS011;8809;51.892;8.384;2022-11-30T09:26:07;4.18;;;3.45;;
17382;SDS011;8809;51.892;8.384;2022-11-30T09:28:36;3.97;;;3.10;;
17382;SDS011;8809;51.892;8.384;2022-11-30T09:31:04;3.97;;;3.30;;
17382;SDS011;8809;51.892;8.384;2022-11-30T09:33:32;4.40;;;3.28;;
17382;SDS011;8809;51.892;8.384;2022-11-30T09:36:02;4.00;;;3.00;;
17382;SDS011;8809;51.892;8.384;2022-11-30T09:38:31;3.78;;;3.00;;
17382;SDS011;8809;51.892;8.384;2022-11-30T09:40:59;3.20;;;2.90;;
17382;SDS011;8809;51.892;8.384;2022-11-30T09:43:31;3.17;;;2.88;;
17382;SDS011;8809;51.892;8.384;2022-11-30T09:46:06;3.67;;;2.85;;
17382;SDS011;8809;51.892;8.384;2022-11-30T09:51:24;3.88;;;3.33;;
17382;SDS011;8809;51.892;8.384;2022-11-30T09:53:58;3.97;;;3.30;;
17382;SDS011;8809;51.892;8.384;2022-11-30T09:56:34;3.63;;;3.08;;
17382;SDS011;8809;51.892;8.384;2022-11-30T09:59:05;4.03;;;3.17;;
17382;SDS011;8809;51.892;8.384;2022-11-30T10:01:46;3.70;;;2.67;;
17382;SDS011;8809;51.892;8.384;2022-11-30T10:04:18;3.33;;;2.75;;
17382;SDS011;8809;51.892;8.384;2022-11-30T10:06:50;3.40;;;3.00;;
17382;SDS011;8809;51.892;8.384;2022-11-30T10:09:28;3.28;;;2.83;;
17382;SDS011;8809;51.892;8.384;2022-11-30T10:12:04;3.15;;;2.70;;
17382;SDS011;8809;51.892;8.384;2022-11-30T10:14:41;2.97;;;2.67;;
17382;SDS011;8809;51.892;8.384;2022-11-30T10:17:34;3.40;;;2.40;;
17382;SDS011;8809;51.892;8.384;2022-11-30T10:20:20;2.95;;;2.30;;
17382;SDS011;8809;51.892;8.384;2022-11-30T10:23:12;3.28;;;2.95;;
17382;SDS011;8809;51.892;8.384;2022-11-30T10:25:51;3.47;;;3.17;;
17382;SDS011;8809;51.892;8.384;2022-11-30T10:28:24;3.72;;;3.05;;
17382;SDS011;8809;51.892;8.384;2022-11-30T10:31:00;3.92;;;3.53;;
17382;SDS011;8809;51.892;8.384;2022-11-30T10:33:29;3.80;;;2.97;;
17382;SDS011;8809;51.892;8.384;2022-11-30T10:36:04;3.88;;;3.42;;
17382;SDS011;8809;51.892;8.384;2022-11-30T10:38:40;3.95;;;3.45;;
17382;SDS011;8809;51.892;8.384;2022-11-30T10:41:11;5.45;;;3.95;;
17382;SDS011;8809;51.892;8.384;2022-11-30T10:43:43;4.32;;;3.42;;
17382;SDS011;8809;51.892;8.384;2022-11-30T10:46:17;3.78;;;3.38;;
17382;SDS011;8809;51.892;8.384;2022-11-30T10:48:47;4.28;;;3.30;;
17382;SDS011;8809;51.892;8.384;2022-11-30T10:51:19;3.45;;;3.15;;
17382;SDS011;8809;51.892;8.384;2022-11-30T10:53:49;5.28;;;3.47;;
17382;SDS011;8809;51.892;8.384;2022-11-30T10:56:19;3.72;;;3.35;;
17382;SDS011;8809;51.892;8.384;2022-11-30T10:58:49;4.10;;;3.22;;
17382;SDS011;8809;51.892;8.384;2022-11-30T11:01:30;3.60;;;3.10;;
17382;SDS011;8809;51.892;8.384;2022-11-30T11:04:06;3.70;;;3.10;;
17382;SDS011;8809;51.892;8.384;2022-11-30T11:06:37;3.85;;;3.30;;
17382;SDS011;8809;51.892;8.384;2022-11-30T11:12:01;3.97;;;3.22;;
17382;SDS011;8809;51.892;8.384;2022-11-30T11:14:30;3.50;;;3.20;;
17382;SDS011;8809;51.892;8.384;2022-11-30T11:16:59;3.78;;;3.40;;
17382;SDS011;8809;51.892;8.384;2022-11-30T11:19:31;3.70;;;2.90;;
17382;SDS011;8809;51.892;8.384;2022-11-30T11:22:01;3.70;;;3.22;;
17382;SDS011;8809;51.892;8.384;2022-11-30T11:24:32;3.25;;;2.90;;
17382;SDS011;8809;51.892;8.384;2022-11-30T11:27:00;3.50;;;3.10;;
17382;SDS011;8809;51.892;8.384;2022-11-30T11:29:28;5.07;;;3.95;;
17382;SDS011;8809;51.892;8.384;2022-11-30T11:32:16;4.28;;;3.60;;
17382;SDS011;8809;51.892;8.384;2022-11-30T11:34:46;3.72;;;3.25;;
17382;SDS011;8809;51.892;8.384;2022-11-30T11:37:16;3.67;;;3.15;;
17382;SDS011;8809;51.892;8.384;2022-11-30T11:39:58;4.00;;;3.30;;
17382;SDS011;8809;51.892;8.384;2022-11-30T11:42:34;4.30;;;3.10;;
17382;SDS011;8809;51.892;8.384;2022-11-30T11:45:03;4.07;;;3.60;;
17382;SDS011;8809;51.892;8.384;2022-11-30T11:47:34;4.05;;;3.45;;
17382;SDS011;8809;51.892;8.384;2022-11-30T11:50:06;4.75;;;3.83;;
17382;SDS011;8809;51.892;8.384;2022-11-30T11:52:48;5.10;;;3.15;;
17382;SDS011;8809;51.892;8.384;2022-11-30T11:55:17;5.68;;;3.72;;
17382;SDS011;8809;51.892;8.384;2022-11-30T11:57:47;5.88;;;4.30;;
17382;SDS011;8809;51.892;8.384;2022-11-30T12:00:21;5.30;;;4.20;;
17382;SDS011;8809;51.892;8.384;2022-11-30T12:02:52;5.82;;;4.35;;
17382;SDS011;8809;51.892;8.384;2022-11-30T12:05:27;6.30;;;4.68;;
17382;SDS011;8809;51.892;8.384;2022-11-30T12:08:06;5.75;;;4.88;;
17382;SDS011;8809;51.892;8.384;2022-11-30T12:10:42;5.97;;;4.97;;
17382;SDS011;8809;51.892;8.384;2022-11-30T12:13:16;6.88;;;4.85;;
17382;SDS011;8809;51.892;8.384;2022-11-30T12:15:56;6.78;;;5.60;;
17382;SDS011;8809;51.892;8.384;2022-11-30T12:18:32;6.63;;;4.43;;
17382;SDS011;8809;51.892;8.384;2022-11-30T12:21:09;7.70;;;5.00;;
17382;SDS011;8809;51.892;8.384;2022-11-30T12:23:46;6.78;;;5.00;;
17382;SDS011;8809;51.892;8.384;2022-11-30T12:26:31;7.55;;;5.03;;
17382;SDS011;8809;51.892;8.384;2022-11-30T12:29:21;6.93;;;5.20;;
17382;SDS011;8809;51.892;8.384;2022-11-30T12:31:54;9.65;;;5.82;;
17382;SDS011;8809;51.892;8.384;2022-11-30T12:34:31;7.55;;;5.65;;
17382;SDS011;8809;51.892;8.384;2022-11-30T12:37:14;9.77;;;6.68;;
17382;SDS011;8809;51.892;8.384;2022-11-30T12:39:50;9.15;;;5.78;;
17382;SDS011;8809;51.892;8.384;2022-11-30T12:42:30;10.00;;;6.15;;
17382;SDS011;8809;51.892;8.384;2022-11-30T12:45:05;9.25;;;6.40;;
17382;SDS011;8809;51.892;8.384;2022-11-30T12:47:45;10.43;;;6.35;;
17382;SDS011;8809;51.892;8.384;2022-11-30T12:50:22;10.05;;;6.57;;
17382;SDS011;8809;51.892;8.384;2022-11-30T12:53:02;11.15;;;7.25;;
17382;SDS011;8809;51.892;8.384;2022-11-30T12:55:41;10.13;;;7.25;;
17382;SDS011;8809;51.892;8.384;2022-11-30T12:58:18;12.05;;;6.88;;
17382;SDS011;8809;51.892;8.384;2022-11-30T13:00:55;11.48;;;7.03;;
17382;SDS011;8809;51.892;8.384;2022-11-30T13:03:43;11.52;;;7.03;;
17382;SDS011;8809;51.892;8.384;2022-11-30T13:06:19;10.82;;;6.90;;
17382;SDS011;8809;51.892;8.384;2022-11-30T13:08:54;13.63;;;8.32;;
17382;SDS011;8809;51.892;8.384;2022-11-30T13:11:27;14.13;;;8.98;;
17382;SDS011;8809;51.892;8.384;2022-11-30T13:14:01;11.85;;;8.70;;
17382;SDS011;8809;51.892;8.384;2022-11-30T13:16:32;12.93;;;8.00;;
17382;SDS011;8809;51.892;8.384;2022-11-30T13:19:03;10.95;;;8.18;;
17382;SDS011;8809;51.892;8.384;2022-11-30T13:21:46;12.27;;;8.63;;
17382;SDS011;8809;51.892;8.384;2022-11-30T13:24:18;13.20;;;7.97;;
17382;SDS011;8809;51.892;8.384;2022-11-30T13:26:54;14.27;;;8.43;;
17382;SDS011;8809;51.892;8.384;2022-11-30T13:29:35;16.27;;;9.15;;
17382;SDS011;8809;51.892;8.384;2022-11-30T13:32:17;14.73;;;9.07;;
17382;SDS011;8809;51.892;8.384;2022-11-30T13:34:45;13.68;;;9.70;;
17382;SDS011;8809;51.892;8.384;2022-11-30T13:37:12;15.35;;;10.00;;
17382;SDS011;8809;51.892;8.384;2022-11-30T13:39:48;16.50;;;10.30;;
17382;SDS011;8809;51.892;8.384;2022-11-30T13:42:32;14.65;;;9.18;;
17382;SDS011;8809;51.892;8.384;2022-11-30T13:45:23;17.50;;;10.77;;
17382;SDS011;8809;51.892;8.384;2022-11-30T13:47:55;15.75;;;9.65;;
17382;SDS011;8809;51.892;8.384;2022-11-30T13:50:24;19.88;;;11.45;;
17382;SDS011;8809;51.892;8.384;2022-11-30T13:53:08;17.15;;;10.32;;
17382;SDS011;8809;51.892;8.384;2022-11-30T13:55:58;16.60;;;10.60;;
17382;SDS011;8809;51.892;8.384;2022-11-30T13:58:30;16.90;;;10.65;;
17382;SDS011;8809;51.892;8.384;2022-11-30T14:06:56;15.18;;;10.35;;
17382;SDS011;8809;51.892;8.384;2022-11-30T14:12:44;15.57;;;10.77;;
17382;SDS011;8809;51.892;8.384;2022-11-30T14:15:49;16.17;;;10.32;;
17382;SDS011;8809;51.892;8.384;2022-11-30T14:18:24;17.15;;;11.35;;
17382;SDS011;8809;51.892;8.384;2022-11-30T14:20:59;16.90;;;10.70;;
17382;SDS011;8809;51.892;8.384;2022-11-30T14:23:28;16.33;;;10.27;;
17382;SDS011;8809;51.892;8.384;2022-11-30T14:25:58;16.50;;;10.75;;
17382;SDS011;8809;51.892;8.384;2022-11-30T14:28:32;15.38;;;10.80;;
17382;SDS011;8809;51.892;8.384;2022-11-30T14:31:05;18.05;;;12.10;;
17382;SDS011;8809;51.892;8.384;2022-11-30T14:33:40;18.40;;;10.10;;
17382;SDS011;8809;51.892;8.384;2022-11-30T14:36:11;16.42;;;10.43;;
17382;SDS011;8809;51.892;8.384;2022-11-30T14:38:39;14.65;;;9.80;;
17382;SDS011;8809;51.892;8.384;2022-11-30T14:41:17;16.08;;;9.90;;
17382;SDS011;8809;51.892;8.384;2022-11-30T14:43:59;15.23;;;9.60;;
17382;SDS011;8809;51.892;8.384;2022-11-30T14:46:31;13.68;;;9.30;;
17382;SDS011;8809;51.892;8.384;2022-11-30T14:49:10;14.27;;;9.75;;
17382;SDS011;8809;51.892;8.384;2022-11-30T14:51:40;16.70;;;10.48;;
17382;SDS011;8809;51.892;8.384;2022-11-30T14:54:13;16.20;;;10.45;;
17382;SDS011;8809;51.892;8.384;2022-11-30T14:56:51;17.65;;;10.85;;
17382;SDS011;8809;51.892;8.384;2022-11-30T14:59:30;19.98;;;11.85;;
17382;SDS011;8809;51.892;8.384;2022-11-30T15:02:16;16.55;;;10.65;;
17382;SDS011;8809;51.892;8.384;2022-11-30T15:04:50;16.63;;;10.02;;
17382;SDS011;8809;51.892;8.384;2022-11-30T15:07:19;20.50;;;12.60;;
17382;SDS011;8809;51.892;8.384;2022-11-30T15:09:48;21.00;;;13.55;;
17382;SDS011;8809;51.892;8.384;2022-11-30T15:12:20;20.08;;;11.63;;
17382;SDS011;8809;51.892;8.384;2022-11-30T15:15:04;20.95;;;11.07;;
17382;SDS011;8809;51.892;8.384;2022-11-30T15:17:48;22.15;;;12.68;;
17382;SDS011;8809;51.892;8.384;2022-11-30T15:20:26;19.67;;;11.45;;
17382;SDS011;8809;51.892;8.384;2022-11-30T15:22:56;24.63;;;12.93;;
17382;SDS011;8809;51.892;8.384;2022-11-30T15:25:25;22.15;;;12.57;;